createdAt,value
2023-05-09T00:02:21.087Z,1016.30
2023-05-09T00:07:20.312Z,1016.25
2023-05-09T00:12:19.570Z,1016.23
2023-05-09T00:17:18.938Z,1016.25
2023-05-09T00:22:17.974Z,1016.19
2023-05-09T00:27:16.209Z,1016.18
2023-05-09T00:32:16.495Z,1016.14
2023-05-09T00:37:16.707Z,1016.13
2023-05-09T00:42:15.973Z,1016.10
2023-05-09T00:47:16.232Z,1015.96
2023-05-09T00:52:14.448Z,1015.87
2023-05-09T00:57:12.678Z,1015.85
2023-05-09T01:02:12.927Z,1015.79
2023-05-09T01:07:11.124Z,1015.79
2023-05-09T01:12:11.349Z,1015.83
2023-05-09T01:17:11.557Z,1015.77
2023-05-09T01:22:08.812Z,1015.66
2023-05-09T01:27:07.974Z,1015.69
2023-05-09T01:32:08.193Z,1015.76
2023-05-09T01:37:06.444Z,1015.71
2023-05-09T01:42:05.729Z,1015.69
2023-05-09T01:47:04.974Z,1015.72
2023-05-09T01:52:04.247Z,1015.66
2023-05-09T01:57:03.484Z,1015.58
2023-05-09T02:02:02.766Z,1015.65
2023-05-09T02:07:03.005Z,1015.58
2023-05-09T02:12:02.244Z,1015.63
2023-05-09T02:17:00.551Z,1015.60
2023-05-09T02:22:00.611Z,1015.63
2023-05-09T02:26:58.852Z,1015.63
2023-05-09T02:31:58.114Z,1015.65
2023-05-09T02:36:56.297Z,1015.65
2023-05-09T02:41:57.596Z,1015.64
2023-05-09T02:46:55.848Z,1015.53
2023-05-09T02:51:55.085Z,1015.53
2023-05-09T02:56:55.309Z,1015.52
2023-05-09T03:01:53.614Z,1015.44
2023-05-09T03:06:54.810Z,1015.41
2023-05-09T03:11:53.013Z,1015.37
2023-05-09T03:16:51.265Z,1015.34
2023-05-09T03:21:50.493Z,1015.25
2023-05-09T03:26:49.759Z,1015.17
2023-05-09T03:31:50.032Z,1015.21
2023-05-09T03:36:48.234Z,1015.28
2023-05-09T03:41:47.518Z,1015.28
2023-05-09T03:46:46.753Z,1015.29
2023-05-09T03:51:46.003Z,1015.25
2023-05-09T03:56:46.246Z,1015.20
2023-05-09T04:01:44.479Z,1015.21
2023-05-09T04:06:43.695Z,1015.33
2023-05-09T04:11:43.941Z,1015.29
2023-05-09T04:16:43.179Z,1015.17
2023-05-09T04:21:42.379Z,1015.08
2023-05-09T04:26:40.609Z,1015.10
2023-05-09T04:31:41.904Z,1015.06
2023-05-09T04:36:39.147Z,1015.06
2023-05-09T04:41:40.393Z,1015.02
2023-05-09T04:46:37.694Z,1015.03
2023-05-09T04:51:37.765Z,1015.01
2023-05-09T04:56:36.019Z,1015.00
2023-05-09T05:01:36.308Z,1015.08
2023-05-09T05:06:35.535Z,1015.00
2023-05-09T05:11:34.764Z,1014.96
2023-05-09T05:16:35.079Z,1014.92
2023-05-09T05:21:33.301Z,1014.89
2023-05-09T05:26:31.572Z,1014.81
2023-05-09T05:31:31.823Z,1014.82
2023-05-09T05:36:30.055Z,1014.80
2023-05-09T05:41:29.290Z,1014.96
2023-05-09T05:46:28.551Z,1014.92
2023-05-09T05:51:28.800Z,1014.98
2023-05-09T05:56:26.040Z,1015.03
2023-05-09T06:01:26.319Z,1015.05
2023-05-09T06:06:25.558Z,1015.03
2023-05-09T06:11:25.823Z,1014.92
2023-05-09T06:16:25.303Z,1014.83
2023-05-09T06:21:24.387Z,1014.76
2023-05-09T06:26:22.606Z,1014.62
2023-05-09T06:31:22.508Z,1014.52
2023-05-09T06:36:21.089Z,1014.57
2023-05-09T06:41:20.338Z,1014.50
2023-05-09T06:46:21.668Z,1014.44
2023-05-09T06:51:19.785Z,1014.45
2023-05-09T06:56:20.188Z,1014.49
2023-05-09T07:01:17.321Z,1014.44
2023-05-09T07:06:16.511Z,1014.44
2023-05-09T07:11:17.745Z,1014.27
2023-05-09T07:16:16.013Z,1014.18
2023-05-09T07:21:14.244Z,1014.24
2023-05-09T07:26:14.535Z,1014.15
2023-05-09T07:31:13.843Z,1014.07
2023-05-09T07:36:12.090Z,1014.01
2023-05-09T07:41:11.395Z,1013.92
2023-05-09T07:46:09.641Z,1013.84
2023-05-09T07:51:09.879Z,1013.75
2023-05-09T07:56:10.037Z,1013.61
2023-05-09T08:01:09.277Z,1013.62
2023-05-09T08:06:09.492Z,1013.49
2023-05-09T08:11:06.732Z,1013.40
2023-05-09T08:16:07.009Z,1013.38
2023-05-09T08:21:05.277Z,1013.40
2023-05-09T08:26:04.513Z,1013.27
2023-05-09T08:31:03.840Z,1013.26
2023-05-09T08:36:02.937Z,1013.10
2023-05-09T08:41:02.177Z,1013.08
2023-05-09T08:46:02.405Z,1013.03
2023-05-09T08:51:01.629Z,1012.92
2023-05-09T08:55:59.844Z,1012.87
2023-05-09T09:00:59.111Z,1012.79
2023-05-09T09:05:58.485Z,1012.74
2023-05-09T09:10:59.524Z,1012.60
2023-05-09T09:15:56.808Z,1012.46
2023-05-09T09:20:57.062Z,1012.41
2023-05-09T09:25:59.621Z,1012.37
2023-05-09T09:30:55.569Z,1012.29
2023-05-09T09:35:53.864Z,1012.25
2023-05-09T09:40:54.129Z,1012.14
2023-05-09T09:45:54.499Z,1012.07
2023-05-09T09:50:51.574Z,1011.94
2023-05-09T09:55:51.876Z,1011.85
2023-05-09T10:00:50.189Z,1011.73
2023-05-09T10:05:50.302Z,1011.61
2023-05-09T10:10:50.551Z,1011.60
2023-05-09T10:15:53.625Z,1011.42
2023-05-09T10:20:47.117Z,1011.35
2023-05-09T10:25:47.361Z,1011.21
2023-05-09T10:30:46.578Z,1011.04
2023-05-09T10:35:45.830Z,1011.02
2023-05-09T10:40:44.068Z,1010.91
2023-05-09T10:45:44.297Z,1010.94
2023-05-09T10:50:44.537Z,1010.78
2023-05-09T10:55:41.779Z,1010.69
2023-05-09T11:00:41.015Z,1010.50
2023-05-09T11:05:40.220Z,1010.38
2023-05-09T11:10:41.448Z,1010.27
2023-05-09T11:15:38.691Z,1010.11
2023-05-09T11:20:38.919Z,1010.03
2023-05-09T11:25:37.158Z,1010.02
2023-05-09T11:30:36.408Z,1009.88
2023-05-09T11:35:35.695Z,1009.76
2023-05-09T11:40:34.936Z,1009.75
2023-05-09T11:45:35.234Z,1009.57
2023-05-09T11:50:33.468Z,1009.53
2023-05-09T11:55:32.752Z,1009.43
2023-05-09T12:00:31.982Z,1009.34
2023-05-09T12:05:31.269Z,1009.28
2023-05-09T12:10:30.544Z,1009.27
2023-05-09T12:15:29.785Z,1009.16
2023-05-09T12:20:29.043Z,1008.99
2023-05-09T12:25:28.303Z,1008.91
2023-05-09T12:30:28.507Z,1008.89
2023-05-09T12:35:28.726Z,1008.82
2023-05-09T12:40:25.928Z,1008.76
2023-05-09T12:45:26.140Z,1008.59
2023-05-09T12:50:25.381Z,1008.60
2023-05-09T12:55:23.625Z,1008.56
2023-05-09T13:00:21.893Z,1008.54
2023-05-09T13:05:22.121Z,1008.49
2023-05-09T13:10:22.361Z,1008.45
2023-05-09T13:15:20.701Z,1008.28
2023-05-09T13:20:21.929Z,1008.32
2023-05-09T13:25:19.163Z,1008.26
2023-05-09T13:30:18.830Z,1008.14
2023-05-09T13:35:17.659Z,1008.06
2023-05-09T13:40:17.219Z,1007.95
2023-05-09T13:45:17.275Z,1007.91
2023-05-09T13:50:15.648Z,1007.89
2023-05-09T13:55:14.649Z,1007.81
2023-05-09T14:00:15.685Z,1007.79
2023-05-09T14:05:13.132Z,1007.66
2023-05-09T14:10:12.558Z,1007.62
2023-05-09T14:15:11.559Z,1007.61
2023-05-09T14:20:10.821Z,1007.57
2023-05-09T14:25:11.098Z,1007.40
2023-05-09T14:30:09.360Z,1007.37
2023-05-09T14:35:08.567Z,1007.32
2023-05-09T14:40:07.871Z,1007.25
2023-05-09T14:45:10.090Z,1007.21
2023-05-09T14:50:06.321Z,1007.22
2023-05-09T14:55:06.618Z,1007.15
2023-05-09T15:00:19.471Z,1007.17
2023-05-09T15:05:06.197Z,1007.11
2023-05-09T15:10:04.437Z,1007.02
2023-05-09T15:15:01.712Z,1007.04
2023-05-09T15:20:01.944Z,1007.02
2023-05-09T15:25:02.041Z,1006.97
2023-05-09T15:29:59.497Z,1006.96
2023-05-09T15:34:59.754Z,1006.94
2023-05-09T15:39:59.991Z,1006.87
2023-05-09T15:44:58.212Z,1006.84
2023-05-09T15:49:58.448Z,1006.86
2023-05-09T15:54:57.703Z,1006.82
2023-05-09T15:59:55.969Z,1006.79
2023-05-09T16:04:55.205Z,1006.77
2023-05-09T16:09:54.440Z,1006.75
2023-05-09T16:14:53.677Z,1006.76
2023-05-09T16:19:52.913Z,1006.75
2023-05-09T16:24:53.159Z,1006.77
2023-05-09T16:29:51.402Z,1006.77
2023-05-09T16:34:50.648Z,1006.83
2023-05-09T16:39:49.921Z,1006.73
2023-05-09T16:44:49.172Z,1006.84
2023-05-09T16:49:49.430Z,1006.91
2023-05-09T16:54:47.663Z,1006.99
2023-05-09T16:59:47.925Z,1007.22
2023-05-09T17:04:46.248Z,1007.42
2023-05-09T17:09:44.636Z,1007.45
2023-05-09T17:14:44.666Z,1007.58
2023-05-09T17:19:44.102Z,1007.77
2023-05-09T17:24:43.605Z,1007.84
2023-05-09T17:29:42.701Z,1007.87
2023-05-09T17:34:42.034Z,1007.83
2023-05-09T17:39:41.238Z,1007.75
2023-05-09T17:44:44.206Z,1007.74
2023-05-09T17:49:41.591Z,1007.79
2023-05-09T17:54:38.766Z,1007.86
2023-05-09T17:59:39.033Z,1007.97
2023-05-09T18:04:39.297Z,1008.08
2023-05-09T18:09:36.557Z,1008.11
2023-05-09T18:14:34.807Z,1008.13
2023-05-09T18:19:36.070Z,1008.24
2023-05-09T18:24:35.107Z,1008.35
2023-05-09T18:29:33.544Z,1008.44
2023-05-09T18:34:32.798Z,1008.49
2023-05-09T18:39:32.027Z,1008.51
2023-05-09T18:44:32.261Z,1008.45
2023-05-09T18:49:30.529Z,1008.60
2023-05-09T18:54:30.770Z,1008.60
2023-05-09T18:59:29.047Z,1008.63
2023-05-09T19:04:28.335Z,1008.58
2023-05-09T19:09:28.649Z,1008.65
2023-05-09T19:14:27.867Z,1008.66
2023-05-09T19:19:28.209Z,1008.76
2023-05-09T19:24:25.399Z,1008.71
2023-05-09T19:29:24.660Z,1008.79
2023-05-09T19:34:23.928Z,1008.77
2023-05-09T19:39:24.243Z,1008.79
2023-05-09T19:44:23.512Z,1008.78
2023-05-09T19:49:21.797Z,1008.78
2023-05-09T19:54:21.034Z,1008.83
2023-05-09T19:59:21.216Z,1008.77
2023-05-09T20:04:18.417Z,1008.83
2023-05-09T20:09:20.664Z,1008.77
2023-05-09T20:14:17.936Z,1008.83
2023-05-09T20:19:18.166Z,1008.71
2023-05-09T20:24:17.374Z,1008.80
2023-05-09T20:29:16.611Z,1008.79
2023-05-09T20:34:14.807Z,1008.76
2023-05-09T20:39:14.970Z,1008.64
2023-05-09T20:44:12.124Z,1008.71
2023-05-09T20:49:12.120Z,1008.67
2023-05-09T20:54:12.131Z,1008.65
2023-05-09T20:59:10.175Z,1008.60
2023-05-09T21:04:10.440Z,1008.69
2023-05-09T21:09:08.704Z,1008.77
2023-05-09T21:14:08.949Z,1008.74
2023-05-09T21:19:07.211Z,1008.70
2023-05-09T21:24:08.474Z,1008.66
2023-05-09T21:29:05.698Z,1008.73
2023-05-09T21:34:04.954Z,1008.70
2023-05-09T21:39:06.181Z,1008.72
2023-05-09T21:44:05.432Z,1008.80
2023-05-09T21:49:03.701Z,1008.87
2023-05-09T21:54:01.960Z,1008.78
2023-05-09T21:59:01.225Z,1008.77
2023-05-09T22:04:02.548Z,1008.77
2023-05-09T22:08:59.842Z,1008.73
2023-05-09T22:13:59.080Z,1008.77
2023-05-09T22:18:58.255Z,1008.74
2023-05-09T22:23:57.593Z,1008.71
2023-05-09T22:28:58.902Z,1008.75
2023-05-09T22:33:56.193Z,1008.76
2023-05-09T22:38:55.515Z,1008.79
2023-05-09T22:43:54.877Z,1008.87
2023-05-09T22:48:53.993Z,1008.84
2023-05-09T22:53:54.308Z,1008.84
2023-05-09T22:58:52.619Z,1008.82
2023-05-09T23:03:52.943Z,1008.74
2023-05-09T23:08:51.550Z,1008.72
2023-05-09T23:13:50.688Z,1008.68
2023-05-09T23:18:49.811Z,1008.73
2023-05-09T23:23:48.816Z,1008.74
2023-05-09T23:28:47.936Z,1008.66
2023-05-09T23:33:49.087Z,1008.63
2023-05-09T23:38:48.208Z,1008.67
2023-05-09T23:43:46.536Z,1008.51
2023-05-09T23:48:44.863Z,1008.47
2023-05-09T23:53:44.193Z,1008.43
2023-05-09T23:58:43.477Z,1008.45
